Flight Track Log - Related Links

Times and Time Zones

All times are in EDT time to prevent confusion due to time zone crossing. See the SWA662 flight status page for this flight to view local times or setup timezone preferences in your user account.

Time Position Orientation Groundspeed Altitude Reporting Facility
EDT Latitude Longitude Course Direction KTS MPH feet Rate Location/Type
Mon 11:07:46 PM 33.9478 -118.4578 59° Northeast 172 198 1,800  Level Los Angeles Center
Mon 11:08:48 PM 33.9453 -118.5350 268° West 228 262 4,700 2,952 Climbing Los Angeles Center
Mon 11:09:50 PM 33.8983 -118.5500 195° South 229 264 7,900 2,878 Climbing Los Angeles Center
Mon 11:10:51 PM 33.9183 -118.4661 74° East 257 296 10,600 1,756 Climbing Los Angeles Center
Mon 11:11:53 PM 33.9625 -118.3794 58° Northeast 342 394 11,500 1,839 Climbing Los Angeles Center
Mon 11:12:55 PM 34.0253 -118.2686 56° Northeast 389 448 14,400 2,878 Climbing Los Angeles Center
Mon 11:13:00 PM 34.3471 -117.6892 59° Northeast  Level FlightAware Approximate
Mon 11:13:56 PM 34.0919 -118.1539 55° Northeast 409 471 17,400  Level Los Angeles Center
Mon 11:14:58 PM 34.1731 -118.0100 56° Northeast 428 493 20,700 2,603 Climbing Los Angeles Center
Mon 11:16:12 PM 34.2572 -117.8589 56° Northeast 448 516 23,300 1,911 Climbing Los Angeles Center
Mon 11:17:13 PM 34.3314 -117.7261 56° Northeast 470 541 25,000 1,707 Climbing Los Angeles Center
Mon 11:18:15 PM 34.4008 -117.5983 57° Northeast 482 555 26,800 1,984 Climbing Los Angeles Center
Mon 11:19:17 PM 34.4772 -117.4608 56° Northeast 490 564 29,100 2,195 Climbing Los Angeles Center
Mon 11:20:18 PM 34.5667 -117.2972 56° Northeast 490 564 31,300 1,854 Climbing Los Angeles Center
Mon 11:21:20 PM 34.6411 -117.1622 56° Northeast 488 562 32,900 1,610 Climbing Los Angeles Center
Mon 11:22:21 PM 34.7164 -117.0283 56° Northeast 487 560 34,600 1,415 Climbing Los Angeles Center
Mon 11:23:23 PM 34.8083 -116.9069 47° Northeast 489 563 35,800 1,161 Climbing Los Angeles Center
Mon 11:24:25 PM 34.8994 -116.7858 47° Northeast 488 562 37,000 585 Climbing Los Angeles Center
Mon 11:25:26 PM 34.9903 -116.6617 48° Northeast 493 567 37,000  Level Los Angeles Center
Mon 11:26:28 PM 35.0997 -116.5156 48° Northeast 488 562 37,000  Level Los Angeles Center
Mon 11:27:29 PM 35.1881 -116.3936 48° Northeast 482 555 37,000  Level Los Angeles Center
Mon 11:28:31 PM 35.2778 -116.2700 48° Northeast 487 560 37,000  Level Los Angeles Center
Mon 11:29:33 PM 35.3681 -116.1467 48° Northeast 488 562 37,000  Level Los Angeles Center
Mon 11:30:34 PM 35.4578 -116.0222 48° Northeast 488 562 37,000  Level Los Angeles Center
Mon 11:31:36 PM 35.5472 -115.8631 55° Northeast 485 558 37,000  Level Los Angeles Center
Mon 11:32:38 PM 35.6072 -115.7178 63° Northeast 479 551 37,000  Level Los Angeles Center
Mon 11:33:39 PM 35.6675 -115.5656 64° Northeast 491 565 37,000  Level Los Angeles Center
Mon 11:34:41 PM 35.7264 -115.4169 64° Northeast 490 564 37,000  Level Los Angeles Center
Mon 11:35:43 PM 35.7853 -115.2683 64° Northeast 487 560 37,000  Level Los Angeles Center
Mon 11:36:44 PM 35.8417 -115.1183 65° Northeast 484 557 37,000  Level Los Angeles Center
Mon 11:37:46 PM 35.9122 -114.9397 64° Northeast 486 559 37,000  Level Los Angeles Center
Mon 11:38:48 PM 35.9697 -114.7900 65° Northeast 487 560 37,000  Level Los Angeles Center
Mon 11:39:49 PM 36.0269 -114.6411 65° Northeast 483 556 37,000  Level Los Angeles Center
Mon 11:40:51 PM 36.0844 -114.4914 65° Northeast 483 556 37,000  Level Los Angeles Center
Mon 11:41:53 PM 36.1419 -114.3414 65° Northeast 484 557 37,000  Level Los Angeles Center
Mon 11:42:55 PM 36.1994 -114.1919 64° Northeast 483 556 37,000  Level Los Angeles Center
Mon 11:43:56 PM 36.2553 -114.0431 65° Northeast 479 551 37,000  Level Los Angeles Center
Mon 11:44:58 PM 36.3222 -113.8656 65° Northeast 476 548 37,000  Level Los Angeles Center
Mon 11:46:12 PM 36.3775 -113.7183 65° Northeast 473 544 37,000  Level Los Angeles Center
Mon 11:47:14 PM 36.4450 -113.5392 65° Northeast 476 548 37,000  Level Los Angeles Center
Mon 11:48:15 PM 36.5053 -113.3758 65° Northeast 477 549 37,000  Level Los Angeles Center
Mon 11:49:17 PM 36.5606 -113.2269 65° Northeast 477 549 37,000  Level Los Angeles Center
Mon 11:50:19 PM 36.6158 -113.0767 65° Northeast 478 550 37,000  Level Los Angeles Center
Mon 11:51:21 PM 36.6700 -112.9264 66° East 479 551 37,000  Level Los Angeles Center
Mon 11:52:22 PM 36.7256 -112.7764 65° Northeast 479 551 37,000  Level Los Angeles Center
Mon 11:53:24 PM 36.7806 -112.6244 66° East 482 555 37,000  Level Los Angeles Center
Mon 11:54:25 PM 36.8461 -112.4406 66° East 486 559 37,000  Level Los Angeles Center
Mon 11:55:27 PM 36.9019 -112.2878 65° Northeast 487 560 37,000  Level Los Angeles Center
Mon 11:56:29 PM 36.9558 -112.1333 66° East 487 560 37,000  Level Los Angeles Center
Mon 11:57:30 PM 37.0108 -111.9806 66° East 486 559 37,000  Level Los Angeles Center
Mon 11:58:32 PM 37.0647 -111.8261 66° East 487 560 37,000  Level Los Angeles Center
Mon 11:59:34 PM 37.1197 -111.6719 66° East 487 560 37,000  Level Los Angeles Center
Mon 11:59:53 PM 37.1406 -111.6108 67° East 486 559 37,000  Level Denver Center
Tue 12:00:54 AM 37.1944 -111.4561 66° East 487 560 37,000  Level Denver Center
Tue 12:01:55 AM 37.2475 -111.3022 67° East 483 556 37,000  Level Denver Center
Tue 12:02:56 AM 37.3008 -111.1472 67° East 485 558 37,000  Level Denver Center
Tue 12:03:57 AM 37.3536 -110.9919 67° East 484 557 37,000  Level Denver Center
Tue 12:04:59 AM 37.4069 -110.8369 67° East 484 557 37,000  Level Denver Center
Tue 12:06:00 AM 37.4603 -110.6825 66° East 484 557 37,000  Level Denver Center
Tue 12:07:01 AM 37.5178 -110.5128 67° East 484 557 37,000  Level Denver Center
Tue 12:08:02 AM 37.5758 -110.3364 67° East 486 559 37,000  Level Denver Center
Tue 12:09:03 AM 37.6272 -110.1839 67° East 491 565 37,000  Level Denver Center
Tue 12:10:04 AM 37.6703 -110.0564 67° East 494 568 37,000  Level Denver Center
Tue 12:11:06 AM 37.7367 -109.8517 68° East 493 567 37,000  Level Denver Center
Tue 12:12:07 AM 37.7881 -109.6969 67° East 496 571 37,000  Level Denver Center
Tue 12:13:08 AM 37.8469 -109.5156 68° East 499 574 37,000  Level Denver Center
Tue 12:14:21 AM 37.8972 -109.3619 67° East 495 570 37,000  Level Denver Center
Tue 12:15:22 AM 37.9633 -109.1564 68° East 493 567 37,000  Level Denver Center
Tue 12:16:24 AM 38.0133 -109.0014 68° East 495 570 37,000  Level Denver Center
Tue 12:17:25 AM 38.0681 -108.8283 68° East 500 575 37,000  Level Denver Center
Tue 12:18:26 AM 38.1167 -108.6731 68° East 498 573 37,000  Level Denver Center
Tue 12:19:27 AM 38.1739 -108.4928 68° East 496 571 37,000  Level Denver Center
Tue 12:20:28 AM 38.2225 -108.3383 68° East 494 568 37,000  Level Denver Center
Tue 12:21:29 AM 38.2706 -108.1825 69° East 494 568 37,000  Level Denver Center
Tue 12:22:43 AM 38.3269 -108.0014 68° East 496 571 37,000  Level Denver Center
Tue 12:23:44 AM 38.3811 -107.8211 69° East 492 566 37,000  Level Denver Center
Tue 12:24:45 AM 38.4375 -107.6383 68° East 496 571 37,000 -148 Level Denver Center
Tue 12:25:46 AM 38.4981 -107.4906 62° Northeast 492 566 36,700 -683 Descending Denver Center
Tue 12:26:48 AM 38.5733 -107.3211 60° Northeast 491 565 35,600 -829 Descending Denver Center
Tue 12:27:49 AM 38.6389 -107.1753 60° Northeast 494 568 35,000 -295 Descending Denver Center
Tue 12:28:50 AM 38.7008 -107.0372 60° Northeast 497 572 35,000  Level Denver Center
Tue 12:29:51 AM 38.7681 -106.8836 61° Northeast 497 572 35,000  Level Denver Center
Tue 12:30:52 AM 38.8478 -106.7022 61° Northeast 489 563 35,000  Level Denver Center
Tue 12:31:54 AM 38.9219 -106.5439 59° Northeast 492 566 35,000 -390 Level Denver Center
Tue 12:32:55 AM 38.9883 -106.4003 59° Northeast 491 565 34,200 -1,623 Descending Denver Center
Tue 12:33:56 AM 39.0533 -106.2578 60° Northeast 486 559 31,700 -2,361 Descending Denver Center
Tue 12:34:57 AM 39.1186 -106.1097 60° Northeast 471 542 29,400 -2,311 Descending Denver Center
Tue 12:35:58 AM 39.1800 -105.9706 60° Northeast 455 524 27,000 -2,311 Descending Denver Center
Tue 12:36:59 AM 39.2394 -105.8333 61° Northeast 443 510 24,700 -2,015 Descending Denver Center
Tue 12:38:12 AM 39.2972 -105.7039 60° Northeast 425 489 22,500 -2,149 Descending Denver Center
Tue 12:39:13 AM 39.3642 -105.5525 60° Northeast 409 471 19,900 -2,459 Descending Denver Center
Tue 12:40:14 AM 39.3989 -105.4031 73° East 390 449 17,500 -2,262 Descending Denver Center
Tue 12:41:15 AM 39.4056 -105.2539 87° East 386 444 15,300 -1,230 Descending Denver Center
Tue 12:42:16 AM 39.4117 -105.1219 87° East 368 423 15,000 -1,033 Descending Denver Center
Tue 12:43:17 AM 39.4200 -104.9928 85° East 363 418 13,200 -1,869 Descending Denver Center
Tue 12:44:18 AM 39.4650 -104.8819 62° Northeast 347 399 11,200 -1,082 Descending Denver Center
Tue 12:45:19 AM 39.5025 -104.7781 65° Northeast 318 366 11,000 -443 Descending Denver Center
Tue 12:46:20 AM 39.5672 -104.7267 31° Northeast 258 297 10,300 -885 Descending Denver Center
Tue 12:47:21 AM 39.6258 -104.6992 20° North 229 264 9,200 -885 Descending Denver Center
Tue 12:48:22 AM 39.6686 -104.6639 32° Northeast 184 212 8,500 -738 Descending Denver Center
Tue 12:49:23 AM 39.7056 -104.6464 20° North 141 162 7,700 -744 Descending Denver Center
Tue 12:50:23 AM 39.7439 -104.6425 North 130 150 7,000 -694 Descending Denver Center
Tue 12:51:24 AM 39.7825 -104.6428 360° North 138 159 6,300 -590 Descending Denver Center
Tue 12:52:25 AM 39.8108 -104.6422 North 135 155 5,800 -492 Descending Denver Center
Tue 12:53:26 AM 39.8511 -104.6414 North 127 146 5,300 -492 Descending Denver Center
Tue 12:55:00 AM 39.8500 -104.6667 North  Level FlightAware Approximate
Tue 01:02:00 AM 39.8617 -104.6732 North  Level Estimated
Tue 01:03:00 AM 39.8617 -104.6732 North  Level Estimated
Tue 01:04:00 AM 39.8617 -104.6732 North  Level Estimated

Login

Don't have an account? Register now (free) for customized features, flight alerts, and more!